createdAt,value
2018-01-30T00:00:57.340Z,95762.75
2018-01-30T00:03:25.850Z,95782.31
2018-01-30T00:05:53.274Z,95718.06
2018-01-30T00:08:20.918Z,95784.78
2018-01-30T00:10:48.367Z,95776.59
2018-01-30T00:13:15.790Z,95783.04
2018-01-30T00:15:43.195Z,95783.42
2018-01-30T00:18:10.590Z,95787.02
2018-01-30T00:20:37.946Z,95778.30
2018-01-30T00:23:05.348Z,95763.64
2018-01-30T00:25:32.702Z,95788.84
2018-01-30T00:28:00.065Z,95781.45
2018-01-30T00:30:27.409Z,95777.47
2018-01-30T00:32:54.846Z,95782.05
2018-01-30T00:35:22.207Z,95756.07
2018-01-30T00:37:49.645Z,95759.65
2018-01-30T00:40:17.026Z,95767.81
2018-01-30T00:42:44.442Z,95749.18
2018-01-30T00:45:11.796Z,95764.36
2018-01-30T00:47:39.206Z,95755.27
2018-01-30T00:50:06.612Z,95740.80
2018-01-30T00:52:34.054Z,95759.06
2018-01-30T00:55:01.424Z,95742.95
2018-01-30T00:57:28.823Z,95755.30
2018-01-30T00:59:56.387Z,95704.72
2018-01-30T01:02:23.742Z,95718.67
2018-01-30T01:04:51.319Z,95747.32
2018-01-30T01:07:18.666Z,95746.42
2018-01-30T01:09:46.042Z,95740.09
2018-01-30T01:12:13.469Z,95738.63
2018-01-30T01:14:40.820Z,95732.92
2018-01-30T01:17:08.173Z,95739.53
2018-01-30T01:19:35.594Z,95747.31
2018-01-30T01:22:03.010Z,95720.94
2018-01-30T01:24:30.352Z,95701.23
2018-01-30T01:26:57.772Z,95732.02
2018-01-30T01:29:25.135Z,95730.84
2018-01-30T01:31:52.512Z,95722.48
2018-01-30T01:34:19.915Z,95726.33
2018-01-30T01:36:47.319Z,95716.67
2018-01-30T01:39:14.679Z,95727.03
2018-01-30T01:41:42.042Z,95713.03
2018-01-30T01:44:09.440Z,95697.53
2018-01-30T01:46:36.794Z,95708.31
2018-01-30T01:49:04.196Z,95694.08
2018-01-30T01:51:31.608Z,95676.97
2018-01-30T01:53:59.036Z,95704.34
2018-01-30T01:56:26.430Z,95678.30
2018-01-30T01:58:53.776Z,95699.77
2018-01-30T02:01:21.230Z,95693.18
2018-01-30T02:03:48.681Z,95685.52
2018-01-30T02:06:16.168Z,95670.92
2018-01-30T02:08:43.539Z,95672.30
2018-01-30T02:11:10.946Z,95672.17
2018-01-30T02:13:38.313Z,95674.78
2018-01-30T02:16:05.680Z,95648.80
2018-01-30T02:18:33.106Z,95658.74
2018-01-30T02:21:00.542Z,95663.52
2018-01-30T02:23:28.040Z,95659.55
2018-01-30T02:25:55.394Z,95652.57
2018-01-30T02:28:22.878Z,95648.23
2018-01-30T02:30:50.231Z,95647.19
2018-01-30T02:33:17.583Z,95648.58
2018-01-30T02:35:44.978Z,95628.96
2018-01-30T02:38:12.326Z,95649.27
2018-01-30T02:40:39.782Z,95633.92
2018-01-30T02:43:07.189Z,95638.48
2018-01-30T02:45:34.651Z,95628.37
2018-01-30T02:48:02.094Z,95641.17
2018-01-30T02:50:29.601Z,95627.17
2018-01-30T02:52:57.039Z,95610.16
2018-01-30T02:55:24.714Z,95615.62
2018-01-30T02:57:52.069Z,95619.30
2018-01-30T03:00:19.482Z,95637.48
2018-01-30T03:02:47.057Z,95625.75
2018-01-30T03:05:14.612Z,95601.81
2018-01-30T03:07:41.958Z,95630.33
2018-01-30T03:10:09.346Z,95624.27
2018-01-30T03:12:36.707Z,95611.80
2018-01-30T03:15:04.122Z,95610.03
2018-01-30T03:17:31.509Z,95632.86
2018-01-30T03:19:59.036Z,95608.91
2018-01-30T03:22:26.471Z,95615.42
2018-01-30T03:24:53.863Z,95619.08
2018-01-30T03:27:22.887Z,95623.54
2018-01-30T03:29:50.283Z,95626.67
2018-01-30T03:32:17.623Z,95618.50
2018-01-30T03:34:45.041Z,95621.38
2018-01-30T03:37:12.442Z,95613.80
2018-01-30T03:39:39.867Z,95605.92
2018-01-30T03:42:07.277Z,95615.30
2018-01-30T03:44:34.935Z,95597.66
2018-01-30T03:47:02.306Z,95619.30
2018-01-30T03:49:29.684Z,95613.59
2018-01-30T03:51:57.084Z,95607.03
2018-01-30T03:54:24.504Z,95613.61
2018-01-30T03:56:52.547Z,95611.15
2018-01-30T03:59:20.086Z,95607.78
2018-01-30T04:01:47.534Z,95600.97
2018-01-30T04:04:15.042Z,95612.14
2018-01-30T04:06:43.688Z,95594.70
2018-01-30T04:09:11.040Z,95607.05
2018-01-30T04:11:38.465Z,95615.43
2018-01-30T04:14:05.876Z,95607.43
2018-01-30T04:16:35.923Z,95611.23
2018-01-30T04:19:03.301Z,95580.48
2018-01-30T04:21:30.943Z,95616.69
2018-01-30T04:23:58.435Z,95572.40
2018-01-30T04:26:26.074Z,95617.70
2018-01-30T04:28:53.562Z,95603.33
2018-01-30T04:31:21.327Z,95613.03
2018-01-30T04:33:48.803Z,95602.14
2018-01-30T04:36:16.266Z,95614.53
2018-01-30T04:38:44.000Z,95608.09
2018-01-30T04:41:11.574Z,95597.11
2018-01-30T04:43:38.966Z,95615.47
2018-01-30T04:46:06.502Z,95609.48
2018-01-30T04:48:33.989Z,95607.12
2018-01-30T04:51:01.537Z,95612.13
2018-01-30T04:53:30.546Z,95607.78
2018-01-30T04:55:58.064Z,95610.27
2018-01-30T04:58:25.967Z,95599.86
2018-01-30T05:00:53.414Z,95620.50
2018-01-30T05:03:20.933Z,95627.30
2018-01-30T05:05:48.571Z,95600.99
2018-01-30T05:08:16.045Z,95621.84
2018-01-30T05:10:45.333Z,95603.33
2018-01-30T05:13:12.858Z,95610.33
2018-01-30T05:15:40.298Z,95609.58
2018-01-30T05:18:08.023Z,95616.80
2018-01-30T05:20:35.598Z,95610.93
2018-01-30T05:23:03.798Z,95611.84
2018-01-30T05:25:31.359Z,95602.57
2018-01-30T05:27:59.567Z,95620.97
2018-01-30T05:30:27.933Z,95608.72
2018-01-30T05:32:55.508Z,95619.31
2018-01-30T05:35:22.935Z,95598.99
2018-01-30T05:37:50.313Z,95607.14
2018-01-30T05:40:17.921Z,95617.61
2018-01-30T05:42:46.251Z,95623.48
2018-01-30T05:45:13.938Z,95627.64
2018-01-30T05:47:42.184Z,95613.25
2018-01-30T05:50:09.611Z,95619.89
2018-01-30T05:52:37.043Z,95621.95
2018-01-30T05:55:04.533Z,95634.06
2018-01-30T05:57:32.433Z,95628.97
2018-01-30T06:00:01.085Z,95613.08
2018-01-30T06:02:34.992Z,95636.41
2018-01-30T06:05:02.610Z,95638.48
2018-01-30T06:07:30.175Z,95642.45
2018-01-30T06:09:57.990Z,95635.49
2018-01-30T06:12:25.579Z,95637.39
2018-01-30T06:14:53.014Z,95639.84
2018-01-30T06:17:21.879Z,95639.47
2018-01-30T06:19:49.565Z,95641.00
2018-01-30T06:22:16.959Z,95645.55
2018-01-30T06:24:44.909Z,95636.08
2018-01-30T06:27:13.457Z,95633.64
2018-01-30T06:29:40.900Z,95630.63
2018-01-30T06:32:08.279Z,95634.56
2018-01-30T06:34:35.702Z,95630.45
2018-01-30T06:37:03.068Z,95634.42
2018-01-30T06:39:30.630Z,95617.36
2018-01-30T06:41:58.110Z,95634.03
2018-01-30T06:44:25.597Z,95639.14
2018-01-30T06:46:53.092Z,95628.73
2018-01-30T06:49:20.513Z,95627.59
2018-01-30T06:51:48.033Z,95639.88
2018-01-30T06:54:15.420Z,95635.31
2018-01-30T06:56:42.895Z,95637.78
2018-01-30T06:59:10.333Z,95621.50
2018-01-30T07:01:37.797Z,95634.55
2018-01-30T07:04:05.253Z,95638.87
2018-01-30T07:06:32.670Z,95636.00
2018-01-30T07:09:00.035Z,95632.58
2018-01-30T07:11:27.472Z,95610.77
2018-01-30T07:13:54.954Z,95624.61
2018-01-30T07:16:22.339Z,95612.63
2018-01-30T07:18:49.971Z,95594.83
2018-01-30T07:21:17.398Z,95612.63
2018-01-30T07:23:44.958Z,95612.58
2018-01-30T07:26:12.428Z,95603.28
2018-01-30T07:28:39.930Z,95599.72
2018-01-30T07:31:07.633Z,95573.49
2018-01-30T07:33:35.182Z,95588.05
2018-01-30T07:36:02.560Z,95597.31
2018-01-30T07:38:29.926Z,95606.17
2018-01-30T07:40:57.359Z,95610.37
2018-01-30T07:43:25.158Z,95599.73
2018-01-30T07:45:52.602Z,95591.95
2018-01-30T07:48:20.088Z,95596.30
2018-01-30T07:50:47.598Z,95583.56
2018-01-30T07:53:15.229Z,95593.23
2018-01-30T07:55:42.684Z,95597.09
2018-01-30T07:58:10.868Z,95607.41
2018-01-30T08:00:39.420Z,95609.53
2018-01-30T08:03:07.027Z,95599.00
2018-01-30T08:05:34.706Z,95602.48
2018-01-30T08:08:02.177Z,95585.84
2018-01-30T08:10:29.571Z,95584.91
2018-01-30T08:12:57.259Z,95591.19
2018-01-30T08:15:24.829Z,95587.56
2018-01-30T08:17:52.886Z,95606.61
2018-01-30T08:20:20.955Z,95584.28
2018-01-30T08:22:48.427Z,95591.08
2018-01-30T08:25:15.862Z,95589.28
2018-01-30T08:27:44.070Z,95597.59
2018-01-30T08:30:11.504Z,95594.63
2018-01-30T08:32:38.886Z,95589.30
2018-01-30T08:35:06.426Z,95587.82
2018-01-30T08:40:07.228Z,95578.43
2018-01-30T08:42:34.631Z,95592.59
2018-01-30T08:45:02.121Z,95577.91
2018-01-30T08:47:29.586Z,95599.20
2018-01-30T08:49:57.174Z,95589.66
2018-01-30T08:52:25.286Z,95572.72
2018-01-30T08:54:53.607Z,95576.36
2018-01-30T08:57:21.342Z,95591.03
2018-01-30T08:59:48.941Z,95580.32
2018-01-30T09:02:16.396Z,95569.82
2018-01-30T09:04:44.026Z,95577.05
2018-01-30T09:07:15.977Z,95573.49
2018-01-30T09:09:43.756Z,95583.91
2018-01-30T09:12:11.285Z,95588.83
2018-01-30T09:14:38.814Z,95572.59
2018-01-30T09:17:06.305Z,95599.58
2018-01-30T09:19:33.725Z,95598.17
2018-01-30T09:22:01.135Z,95580.08
2018-01-30T09:24:28.565Z,95591.55
2018-01-30T09:27:03.506Z,95597.45
2018-01-30T09:29:31.460Z,95591.94
2018-01-30T09:31:59.208Z,95582.77
2018-01-30T09:34:26.645Z,95576.40
2018-01-30T09:36:54.396Z,95598.95
2018-01-30T09:39:21.862Z,95569.50
2018-01-30T09:41:49.805Z,95579.61
2018-01-30T09:44:17.348Z,95589.50
2018-01-30T09:46:45.811Z,95566.85
2018-01-30T09:49:13.328Z,95594.93
2018-01-30T09:51:41.421Z,95561.84
2018-01-30T09:54:09.015Z,95561.42
2018-01-30T09:56:36.729Z,95517.27
2018-01-30T09:59:04.297Z,95566.35
2018-01-30T10:01:32.041Z,95577.91
2018-01-30T10:03:59.566Z,95529.78
2018-01-30T10:06:26.937Z,95556.64
2018-01-30T10:08:54.460Z,95552.33
2018-01-30T10:11:21.899Z,95542.16
2018-01-30T10:13:49.321Z,95570.95
2018-01-30T10:16:16.757Z,95526.45
2018-01-30T10:18:44.213Z,95560.92
2018-01-30T10:21:11.631Z,95570.91
2018-01-30T10:23:39.264Z,95517.96
2018-01-30T10:26:06.687Z,95517.45
2018-01-30T10:28:34.206Z,95557.09
2018-01-30T10:31:01.629Z,95534.60
2018-01-30T10:33:29.083Z,95525.44
2018-01-30T10:35:56.595Z,95542.69
2018-01-30T10:38:24.254Z,95532.41
2018-01-30T10:40:51.764Z,95523.73
2018-01-30T10:43:19.194Z,95537.80
2018-01-30T10:45:46.650Z,95540.85
2018-01-30T10:48:14.184Z,95533.89
2018-01-30T10:50:41.647Z,95543.98
2018-01-30T10:53:09.301Z,95563.27
2018-01-30T10:55:36.890Z,95542.76
2018-01-30T10:58:04.354Z,95521.74
2018-01-30T11:00:31.890Z,95541.26
2018-01-30T11:02:59.454Z,95550.52
2018-01-30T11:05:27.057Z,95505.28
2018-01-30T11:07:54.607Z,95544.13
2018-01-30T11:10:21.993Z,95530.77
2018-01-30T11:12:49.446Z,95551.30
2018-01-30T11:15:16.921Z,95555.14
2018-01-30T11:17:44.379Z,95537.66
2018-01-30T11:20:11.832Z,95542.95
2018-01-30T11:22:39.483Z,95534.27
2018-01-30T11:25:06.899Z,95557.81
2018-01-30T11:27:34.438Z,95509.19
2018-01-30T11:30:01.923Z,95516.32
2018-01-30T11:32:29.435Z,95547.66
2018-01-30T11:34:56.900Z,95566.91
2018-01-30T11:37:24.596Z,95552.99
2018-01-30T11:39:52.059Z,95532.45
2018-01-30T11:42:19.603Z,95527.58
2018-01-30T11:44:46.991Z,95543.91
2018-01-30T11:47:14.459Z,95539.59
2018-01-30T11:49:41.838Z,95531.88
2018-01-30T11:52:09.374Z,95555.87
2018-01-30T11:54:36.867Z,95547.53
2018-01-30T11:57:04.309Z,95520.82
2018-01-30T11:59:31.900Z,95533.77
2018-01-30T12:01:59.398Z,95532.92
2018-01-30T12:04:26.811Z,95504.41
2018-01-30T12:06:54.258Z,95523.65
2018-01-30T12:09:21.801Z,95511.39
2018-01-30T12:11:49.294Z,95560.29
2018-01-30T12:14:16.719Z,95557.17
2018-01-30T12:16:44.469Z,95563.91
2018-01-30T12:19:11.970Z,95563.78
2018-01-30T12:21:39.815Z,95523.95
2018-01-30T12:24:07.211Z,95547.19
2018-01-30T12:26:35.035Z,95537.09
2018-01-30T12:29:02.549Z,95561.88
2018-01-30T12:31:30.187Z,95571.27
2018-01-30T12:33:57.972Z,95550.94
2018-01-30T12:36:25.538Z,95565.72
2018-01-30T12:38:53.110Z,95563.09
2018-01-30T12:41:20.557Z,95576.66
2018-01-30T12:43:48.195Z,95587.02
2018-01-30T12:46:15.637Z,95577.45
2018-01-30T12:48:43.199Z,95558.04
2018-01-30T12:51:10.619Z,95576.58
2018-01-30T12:53:38.230Z,95565.67
2018-01-30T12:56:05.738Z,95559.52
2018-01-30T12:58:33.178Z,95578.86
2018-01-30T13:01:00.776Z,95535.05
2018-01-30T13:03:28.371Z,95558.91
2018-01-30T13:05:55.809Z,95548.78
2018-01-30T13:08:23.257Z,95557.23
2018-01-30T13:10:50.701Z,95548.64
2018-01-30T13:13:18.187Z,95565.17
2018-01-30T13:15:45.700Z,95564.27
2018-01-30T13:18:13.162Z,95542.98
2018-01-30T13:20:40.601Z,95574.89
2018-01-30T13:23:08.141Z,95585.29
2018-01-30T13:25:35.698Z,95537.10
2018-01-30T13:28:03.123Z,95570.15
2018-01-30T13:30:30.563Z,95543.33
2018-01-30T13:32:58.127Z,95536.39
2018-01-30T13:35:25.623Z,95569.45
2018-01-30T13:37:53.230Z,95517.03
2018-01-30T13:40:20.803Z,95525.88
2018-01-30T13:42:48.391Z,95581.75
2018-01-30T13:45:15.879Z,95561.75
2018-01-30T13:47:43.329Z,95578.03
2018-01-30T13:50:10.905Z,95595.24
2018-01-30T13:52:39.192Z,95577.84
2018-01-30T13:55:06.814Z,95582.34
2018-01-30T13:57:34.429Z,95598.72
2018-01-30T14:00:01.856Z,95550.88
2018-01-30T14:02:29.376Z,95598.63
2018-01-30T14:04:56.858Z,95605.91
2018-01-30T14:07:24.237Z,95591.17
2018-01-30T14:09:51.708Z,95560.95
2018-01-30T14:12:19.166Z,95590.98
2018-01-30T14:14:46.831Z,95615.69
2018-01-30T14:17:14.293Z,95607.55
2018-01-30T14:19:41.704Z,95589.19
2018-01-30T14:22:09.298Z,95613.00
2018-01-30T14:24:36.744Z,95606.95
2018-01-30T14:27:04.317Z,95607.00
2018-01-30T14:29:31.792Z,95611.00
2018-01-30T14:31:59.392Z,95615.81
2018-01-30T14:34:26.873Z,95610.02
2018-01-30T14:36:54.305Z,95597.36
2018-01-30T14:39:21.802Z,95595.23
2018-01-30T14:41:49.287Z,95624.79
2018-01-30T14:44:16.720Z,95612.28
2018-01-30T14:46:44.125Z,95630.66
2018-01-30T14:49:11.604Z,95621.61
2018-01-30T14:51:39.054Z,95614.11
2018-01-30T14:54:06.467Z,95631.00
2018-01-30T14:56:33.951Z,95610.05
2018-01-30T14:59:01.359Z,95616.46
2018-01-30T15:01:29.020Z,95607.41
2018-01-30T15:03:56.912Z,95628.33
2018-01-30T15:06:24.310Z,95644.90
2018-01-30T15:08:51.745Z,95633.78
2018-01-30T15:11:19.294Z,95609.81
2018-01-30T15:13:46.736Z,95639.52
2018-01-30T15:16:14.215Z,95641.78
2018-01-30T15:18:41.651Z,95650.30
2018-01-30T15:21:09.091Z,95635.73
2018-01-30T15:23:36.715Z,95646.70
2018-01-30T15:26:04.194Z,95637.83
2018-01-30T15:28:31.672Z,95641.06
2018-01-30T15:30:59.070Z,95647.11
2018-01-30T15:33:26.501Z,95628.48
2018-01-30T15:35:53.940Z,95642.86
2018-01-30T15:38:21.419Z,95638.55
2018-01-30T15:40:48.874Z,95623.24
2018-01-30T15:43:16.286Z,95619.13
2018-01-30T15:45:43.688Z,95652.06
2018-01-30T15:48:11.124Z,95629.42
2018-01-30T15:50:38.502Z,95656.44
2018-01-30T15:53:05.956Z,95649.11
2018-01-30T15:55:33.344Z,95657.47
2018-01-30T15:58:00.950Z,95614.40
2018-01-30T16:00:28.423Z,95667.53
2018-01-30T16:02:55.798Z,95657.13
2018-01-30T16:05:23.168Z,95652.98
2018-01-30T16:07:50.630Z,95668.94
2018-01-30T16:10:18.008Z,95686.41
2018-01-30T16:12:45.385Z,95673.15
2018-01-30T16:15:14.032Z,95679.43
2018-01-30T16:17:41.481Z,95699.36
2018-01-30T16:20:08.894Z,95681.15
2018-01-30T16:22:37.321Z,95690.69
2018-01-30T16:25:04.938Z,95691.67
2018-01-30T16:27:32.398Z,95679.77
2018-01-30T16:29:59.967Z,95699.31
2018-01-30T16:32:27.403Z,95717.70
2018-01-30T16:34:54.757Z,95720.92
2018-01-30T16:37:22.165Z,95719.05
2018-01-30T16:39:49.909Z,95688.39
2018-01-30T16:42:17.333Z,95736.92
2018-01-30T16:44:45.316Z,95731.25
2018-01-30T16:47:12.661Z,95727.48
2018-01-30T16:49:40.061Z,95748.54
2018-01-30T16:52:07.434Z,95740.01
2018-01-30T16:54:35.027Z,95730.71
2018-01-30T16:57:02.418Z,95742.11
2018-01-30T16:59:29.832Z,95747.98
2018-01-30T17:01:57.237Z,95706.89
2018-01-30T17:04:24.618Z,95760.33
2018-01-30T17:06:53.462Z,95752.59
2018-01-30T17:09:21.021Z,95747.69
2018-01-30T17:11:48.507Z,95760.54
2018-01-30T17:14:15.940Z,95752.21
2018-01-30T17:16:43.489Z,95760.75
2018-01-30T17:19:10.890Z,95756.76
2018-01-30T17:21:38.278Z,95760.00
2018-01-30T17:24:07.274Z,95756.78
2018-01-30T17:26:34.922Z,95751.85
2018-01-30T17:29:02.983Z,95752.06
2018-01-30T17:31:30.383Z,95747.69
2018-01-30T17:33:57.820Z,95761.54
2018-01-30T17:36:25.272Z,95758.50
2018-01-30T17:38:52.646Z,95772.34
2018-01-30T17:41:20.130Z,95757.38
2018-01-30T17:43:47.464Z,95756.83
2018-01-30T17:46:14.899Z,95774.25
2018-01-30T17:48:42.429Z,95778.23
2018-01-30T17:51:09.815Z,95782.05
2018-01-30T17:53:37.194Z,95773.72
2018-01-30T17:56:04.610Z,95776.73
2018-01-30T17:58:31.988Z,95780.72
2018-01-30T18:00:59.414Z,95782.83
2018-01-30T18:03:26.788Z,95788.30
2018-01-30T18:05:54.157Z,95777.31
2018-01-30T18:08:21.556Z,95782.45
2018-01-30T18:10:48.979Z,95782.06
2018-01-30T18:13:16.431Z,95794.55
2018-01-30T18:15:43.807Z,95800.06
2018-01-30T18:18:11.230Z,95795.34
2018-01-30T18:20:38.625Z,95793.26
2018-01-30T18:23:05.973Z,95801.00
2018-01-30T18:25:33.417Z,95802.74
2018-01-30T18:28:00.796Z,95800.09
2018-01-30T18:30:28.214Z,95787.19
2018-01-30T18:32:55.597Z,95785.66
2018-01-30T18:35:22.965Z,95807.47
2018-01-30T18:37:50.370Z,95809.56
2018-01-30T18:40:17.746Z,95816.02
2018-01-30T18:42:45.172Z,95794.78
2018-01-30T18:45:12.556Z,95805.77
2018-01-30T18:47:39.984Z,95820.01
2018-01-30T18:50:07.445Z,95823.05
2018-01-30T18:52:34.870Z,95808.05
2018-01-30T18:55:02.266Z,95832.92
2018-01-30T18:57:29.679Z,95828.55
2018-01-30T18:59:57.134Z,95817.94
2018-01-30T19:02:24.527Z,95834.83
2018-01-30T19:04:51.944Z,95816.61
2018-01-30T19:07:19.314Z,95829.13
2018-01-30T19:09:46.726Z,95830.84
2018-01-30T19:12:14.108Z,95830.45
2018-01-30T19:14:41.595Z,95824.95
2018-01-30T19:17:08.945Z,95825.52
2018-01-30T19:19:36.346Z,95828.17
2018-01-30T19:22:03.706Z,95821.93
2018-01-30T19:24:31.116Z,95833.48
2018-01-30T19:26:58.541Z,95828.37
2018-01-30T19:29:25.980Z,95832.16
2018-01-30T19:31:53.371Z,95846.39
2018-01-30T19:34:20.785Z,95828.73
2018-01-30T19:36:48.182Z,95839.55
2018-01-30T19:39:15.560Z,95812.59
2018-01-30T19:41:43.059Z,95836.34
2018-01-30T19:44:10.438Z,95851.33
2018-01-30T19:46:37.828Z,95843.72
2018-01-30T19:49:05.221Z,95862.89
2018-01-30T19:51:32.622Z,95862.33
2018-01-30T19:54:00.007Z,95850.37
2018-01-30T19:56:27.400Z,95854.16
2018-01-30T19:58:54.870Z,95823.39
2018-01-30T20:01:22.231Z,95863.25
2018-01-30T20:03:49.630Z,95833.42
2018-01-30T20:06:17.004Z,95854.50
2018-01-30T20:08:44.445Z,95860.05
2018-01-30T20:11:11.789Z,95856.02
2018-01-30T20:13:39.155Z,95866.44
2018-01-30T20:16:06.557Z,95868.72
2018-01-30T20:18:33.962Z,95874.41
2018-01-30T20:21:01.361Z,95844.44
2018-01-30T20:23:28.724Z,95867.18
2018-01-30T20:25:56.130Z,95887.13
2018-01-30T20:28:23.534Z,95887.11
2018-01-30T20:30:51.035Z,95880.29
2018-01-30T20:33:18.438Z,95877.45
2018-01-30T20:35:45.814Z,95873.26
2018-01-30T20:38:13.180Z,95855.41
2018-01-30T20:40:40.599Z,95870.79
2018-01-30T20:43:07.954Z,95853.91
2018-01-30T20:45:35.348Z,95863.59
2018-01-30T20:48:02.754Z,95853.16
2018-01-30T20:50:30.124Z,95865.68
2018-01-30T20:52:57.486Z,95858.84
2018-01-30T20:55:24.859Z,95861.87
2018-01-30T20:57:52.235Z,95862.63
2018-01-30T21:00:19.617Z,95860.17
2018-01-30T21:02:46.991Z,95856.00
2018-01-30T21:05:14.404Z,95848.97
2018-01-30T21:07:41.811Z,95867.77
2018-01-30T21:10:09.173Z,95867.39
2018-01-30T21:12:36.519Z,95868.88
2018-01-30T21:15:03.966Z,95873.23
2018-01-30T21:17:31.398Z,95869.06
2018-01-30T21:19:58.761Z,95864.48
2018-01-30T21:22:26.119Z,95867.89
2018-01-30T21:24:53.510Z,95879.23
2018-01-30T21:27:20.888Z,95872.02
2018-01-30T21:29:48.262Z,95883.95
2018-01-30T21:32:15.674Z,95877.30
2018-01-30T21:34:43.050Z,95879.38
2018-01-30T21:37:10.487Z,95883.38
2018-01-30T21:39:37.882Z,95881.81
2018-01-30T21:42:10.701Z,95882.20
2018-01-30T21:44:38.079Z,95891.04
2018-01-30T21:47:05.467Z,95896.50
2018-01-30T21:49:32.862Z,95875.62
2018-01-30T21:52:00.223Z,95874.48
2018-01-30T21:54:27.604Z,95875.02
2018-01-30T21:56:54.995Z,95899.87
2018-01-30T21:59:22.400Z,95886.38
2018-01-30T22:01:49.868Z,95900.44
2018-01-30T22:04:17.210Z,95892.25
2018-01-30T22:06:44.567Z,95893.77
2018-01-30T22:09:11.965Z,95903.25
2018-01-30T22:11:39.304Z,95890.50
2018-01-30T22:14:06.666Z,95887.44
2018-01-30T22:16:34.070Z,95890.28
2018-01-30T22:19:01.449Z,95885.56
2018-01-30T22:21:28.833Z,95881.73
2018-01-30T22:23:56.217Z,95886.14
2018-01-30T22:26:23.596Z,95824.73
2018-01-30T22:28:50.979Z,95883.47
2018-01-30T22:31:18.351Z,95878.52
2018-01-30T22:33:45.727Z,95873.60
2018-01-30T22:36:13.065Z,95884.77
2018-01-30T22:38:40.435Z,95868.64
2018-01-30T22:41:07.862Z,95871.48
2018-01-30T22:43:35.226Z,95862.15
2018-01-30T22:46:02.621Z,95875.48
